createdAt,value
2022-11-21T00:04:48.406Z,50.29
2022-11-21T00:10:10.438Z,50.08
2022-11-21T00:15:33.434Z,50.24
2022-11-21T00:20:55.075Z,50.31
2022-11-21T00:26:17.734Z,50.57
2022-11-21T00:31:39.447Z,50.45
2022-11-21T00:37:01.085Z,50.32
2022-11-21T00:42:22.740Z,50.59
2022-11-21T00:47:44.410Z,50.31
2022-11-21T00:53:06.049Z,50.24
2022-11-21T00:58:28.216Z,50.62
2022-11-21T01:03:50.044Z,50.66
2022-11-21T01:09:11.753Z,50.65
2022-11-21T01:14:33.436Z,50.31
2022-11-21T01:19:55.092Z,50.50
2022-11-21T01:25:16.777Z,50.21
2022-11-21T01:30:38.431Z,50.25
2022-11-21T01:36:27.694Z,50.18
2022-11-21T01:41:49.347Z,50.15
2022-11-21T01:47:11.319Z,50.29
2022-11-21T01:52:34.144Z,50.54
2022-11-21T01:57:56.129Z,50.56
2022-11-21T02:03:24.977Z,50.15
2022-11-21T02:08:46.775Z,50.14
2022-11-21T02:14:09.463Z,50.29
2022-11-21T02:19:40.315Z,50.58
2022-11-21T02:25:10.216Z,50.07
2022-11-21T02:30:35.395Z,50.30
2022-11-21T02:36:01.667Z,50.24
2022-11-21T02:41:26.881Z,50.76
2022-11-21T02:46:52.412Z,50.50
2022-11-21T02:52:14.089Z,50.55
2022-11-21T02:57:35.815Z,50.43
2022-11-21T03:02:57.485Z,50.22
2022-11-21T03:08:19.151Z,50.62
2022-11-21T03:13:40.793Z,50.68
2022-11-21T03:19:02.682Z,50.42
2022-11-21T03:24:24.367Z,50.76
2022-11-21T03:29:46.095Z,50.62
2022-11-21T03:35:08.162Z,50.73
2022-11-21T03:40:29.790Z,50.51
2022-11-21T03:45:51.545Z,50.35
2022-11-21T03:51:13.310Z,50.35
2022-11-21T03:56:35.360Z,50.41
2022-11-21T04:01:57.034Z,50.89
2022-11-21T04:07:18.870Z,50.59
2022-11-21T04:12:40.546Z,50.64
2022-11-21T04:18:02.292Z,50.51
2022-11-21T04:23:24.008Z,50.78
2022-11-21T04:28:45.735Z,50.61
2022-11-21T04:34:07.391Z,50.63
2022-11-21T04:39:29.085Z,50.40
2022-11-21T04:44:50.813Z,50.74
2022-11-21T04:50:15.335Z,50.48
2022-11-21T04:55:37.001Z,50.40
2022-11-21T05:00:58.730Z,50.35
2022-11-21T05:06:20.483Z,50.59
2022-11-21T05:12:00.774Z,50.59
2022-11-21T05:17:23.370Z,50.48
2022-11-21T05:22:49.962Z,50.21
2022-11-21T05:28:11.685Z,50.56
2022-11-21T05:33:33.429Z,50.60
2022-11-21T05:38:55.078Z,50.33
2022-11-21T05:44:16.758Z,50.22
2022-11-21T05:49:38.401Z,50.20
2022-11-21T05:55:00.060Z,50.14
2022-11-21T06:00:21.839Z,50.27
2022-11-21T06:05:43.492Z,50.53
2022-11-21T06:11:07.021Z,50.18
2022-11-21T06:16:28.687Z,50.13
2022-11-21T06:21:50.333Z,50.14
2022-11-21T06:27:12.031Z,50.46
2022-11-21T06:32:37.820Z,50.17
2022-11-21T06:37:59.572Z,50.37
2022-11-21T06:43:21.246Z,50.29
2022-11-21T06:48:43.807Z,50.45
2022-11-21T06:54:05.494Z,50.16
2022-11-21T06:59:27.148Z,50.35
2022-11-21T07:04:48.815Z,49.92
2022-11-21T07:10:10.752Z,50.30
2022-11-21T07:15:33.708Z,49.96
2022-11-21T07:21:04.550Z,49.90
2022-11-21T07:26:26.217Z,49.00
2022-11-21T07:31:47.927Z,47.52
2022-11-21T07:37:09.636Z,46.03
2022-11-21T07:42:35.661Z,44.63
2022-11-21T07:48:01.626Z,43.24
2022-11-21T07:53:24.251Z,43.26
2022-11-21T07:58:45.954Z,43.33
2022-11-21T08:04:07.631Z,43.93
2022-11-21T08:09:29.882Z,44.20
2022-11-21T08:14:51.712Z,43.83
2022-11-21T08:20:13.549Z,44.10
2022-11-21T08:25:37.507Z,43.89
2022-11-21T08:30:59.190Z,43.60
2022-11-21T08:36:20.931Z,43.74
2022-11-21T08:42:01.211Z,43.46
2022-11-21T08:47:22.968Z,43.36
2022-11-21T08:52:44.668Z,43.06
2022-11-21T08:58:06.326Z,43.17
2022-11-21T09:03:31.057Z,43.88
2022-11-21T09:08:53.373Z,43.08
2022-11-21T09:14:53.720Z,43.27
2022-11-21T09:20:15.542Z,43.64
2022-11-21T09:25:37.444Z,43.64
2022-11-21T09:30:59.309Z,43.58
2022-11-21T09:36:21.077Z,42.74
2022-11-21T09:42:20.114Z,42.22
2022-11-21T09:47:45.584Z,42.19
2022-11-21T09:53:15.081Z,42.77
2022-11-21T09:58:56.191Z,42.23
2022-11-21T10:04:17.911Z,42.08
2022-11-21T10:09:51.999Z,41.85
2022-11-21T10:15:25.487Z,41.45
2022-11-21T10:20:56.120Z,41.07
2022-11-21T10:26:42.276Z,41.22
2022-11-21T10:32:39.352Z,41.08
2022-11-21T10:38:03.549Z,40.97
2022-11-21T10:43:49.508Z,41.13
2022-11-21T10:49:14.364Z,41.21
2022-11-21T10:55:05.045Z,41.21
2022-11-21T11:00:27.641Z,41.39
2022-11-21T11:05:58.559Z,41.61
2022-11-21T11:11:25.777Z,41.80
2022-11-21T11:16:47.927Z,42.30
2022-11-21T11:22:28.025Z,42.32
2022-11-21T11:27:49.895Z,42.43
2022-11-21T11:33:33.299Z,41.93
2022-11-21T11:38:59.875Z,42.08
2022-11-21T11:44:51.073Z,41.83
2022-11-21T11:50:21.476Z,41.63
2022-11-21T11:55:54.628Z,41.83
2022-11-21T12:01:31.829Z,41.80
2022-11-21T12:07:41.589Z,41.81
2022-11-21T12:12:51.287Z,40.91
2022-11-21T12:18:15.945Z,39.72
2022-11-21T12:23:37.538Z,39.23
2022-11-21T12:29:17.732Z,38.78
2022-11-21T12:34:59.691Z,38.06
2022-11-21T12:40:27.146Z,38.41
2022-11-21T12:45:57.809Z,38.36
2022-11-21T12:51:56.299Z,38.61
2022-11-21T12:57:20.028Z,38.59
2022-11-21T13:02:59.769Z,39.19
2022-11-21T13:08:36.806Z,39.02
2022-11-21T13:14:09.888Z,39.55
2022-11-21T13:20:06.815Z,39.81
2022-11-21T13:25:43.533Z,39.55
2022-11-21T13:31:29.416Z,39.63
2022-11-21T13:36:51.084Z,39.97
2022-11-21T13:42:32.319Z,39.85
2022-11-21T13:48:05.700Z,39.49
2022-11-21T13:53:58.257Z,39.66
2022-11-21T13:59:45.388Z,39.62
2022-11-21T14:05:25.153Z,39.68
2022-11-21T14:10:48.776Z,39.82
2022-11-21T14:16:21.869Z,39.48
2022-11-21T14:21:46.563Z,38.82
2022-11-21T14:27:19.364Z,39.02
2022-11-21T14:32:41.689Z,39.27
2022-11-21T14:38:06.120Z,40.00
2022-11-21T14:43:31.775Z,40.09
2022-11-21T14:48:53.977Z,40.36
2022-11-21T14:54:28.606Z,40.62
2022-11-21T14:59:51.596Z,41.33
2022-11-21T15:05:24.915Z,41.99
2022-11-21T15:11:00.949Z,42.29
2022-11-21T15:16:24.263Z,42.53
2022-11-21T15:21:46.514Z,42.90
2022-11-21T15:27:30.200Z,42.98
2022-11-21T15:33:01.751Z,43.57
2022-11-21T15:38:27.818Z,43.35
2022-11-21T15:43:52.120Z,43.23
2022-11-21T15:49:32.019Z,43.21
2022-11-21T15:54:54.825Z,43.60
2022-11-21T16:00:17.550Z,43.89
2022-11-21T16:05:39.251Z,43.84
2022-11-21T16:11:01.172Z,44.01
2022-11-21T16:16:25.288Z,44.37
2022-11-21T16:21:46.971Z,44.14
2022-11-21T16:27:08.640Z,44.63
2022-11-21T16:32:30.369Z,44.26
2022-11-21T16:37:54.110Z,44.90
2022-11-21T16:43:15.768Z,44.58
2022-11-21T16:48:37.490Z,45.16
2022-11-21T16:54:03.077Z,45.04
2022-11-21T16:59:29.134Z,45.02
2022-11-21T17:04:52.359Z,45.09
2022-11-21T17:10:15.052Z,44.89
2022-11-21T17:15:36.723Z,44.59
2022-11-21T17:20:58.781Z,44.42
2022-11-21T17:26:26.009Z,44.14
2022-11-21T17:31:50.427Z,44.02
2022-11-21T17:37:12.155Z,43.79
2022-11-21T17:42:34.104Z,44.10
2022-11-21T17:47:55.796Z,43.81
2022-11-21T17:53:17.444Z,43.55
2022-11-21T17:58:39.512Z,44.00
2022-11-21T18:04:03.883Z,43.99
2022-11-21T18:09:25.584Z,44.09
2022-11-21T18:14:50.254Z,44.23
2022-11-21T18:20:12.021Z,43.84
2022-11-21T18:25:37.602Z,44.30
2022-11-21T18:31:12.164Z,44.50
2022-11-21T18:36:34.086Z,44.28
2022-11-21T18:41:55.793Z,44.48
2022-11-21T18:47:20.827Z,43.80
2022-11-21T18:52:46.543Z,43.06
2022-11-21T18:58:08.631Z,42.54
2022-11-21T19:03:30.832Z,43.07
2022-11-21T19:08:54.075Z,42.81
2022-11-21T19:14:16.152Z,42.35
2022-11-21T19:19:37.875Z,42.57
2022-11-21T19:24:59.643Z,42.31
2022-11-21T19:30:21.647Z,42.31
2022-11-21T19:35:44.428Z,42.37
2022-11-21T19:41:14.252Z,42.57
2022-11-21T19:46:39.076Z,42.61
2022-11-21T19:52:00.813Z,42.85
2022-11-21T19:57:22.642Z,42.97
2022-11-21T20:02:44.293Z,42.46
2022-11-21T20:08:16.444Z,42.14
2022-11-21T20:13:40.787Z,41.87
2022-11-21T20:19:06.840Z,41.63
2022-11-21T20:24:28.757Z,41.56
2022-11-21T20:29:50.900Z,41.62
2022-11-21T20:35:15.221Z,41.37
2022-11-21T20:40:36.941Z,41.42
2022-11-21T20:46:09.756Z,41.25
2022-11-21T20:53:06.251Z,41.61
2022-11-21T20:57:15.477Z,41.51
2022-11-21T21:02:37.343Z,41.42
2022-11-21T21:07:59.156Z,41.15
2022-11-21T21:13:20.878Z,41.32
2022-11-21T21:18:49.181Z,41.45
2022-11-21T21:24:15.156Z,41.29
2022-11-21T21:29:36.811Z,41.83
2022-11-21T21:34:58.495Z,41.83
2022-11-21T21:40:20.185Z,42.39
2022-11-21T21:45:41.902Z,41.84
2022-11-21T21:51:04.674Z,42.08
2022-11-21T21:56:28.175Z,42.21
2022-11-21T22:01:49.852Z,42.63
2022-11-21T22:07:11.662Z,42.34
2022-11-21T22:12:33.359Z,42.43
2022-11-21T22:17:55.071Z,42.34
2022-11-21T22:23:16.929Z,42.37
2022-11-21T22:28:39.693Z,42.61
2022-11-21T22:34:02.101Z,42.69
2022-11-21T22:39:23.771Z,42.78
2022-11-21T22:44:45.467Z,42.81
2022-11-21T22:50:08.132Z,42.73
2022-11-21T22:55:29.798Z,43.05
2022-11-21T23:00:51.643Z,42.88
2022-11-21T23:06:18.472Z,42.88
2022-11-21T23:11:41.145Z,43.04
2022-11-21T23:17:02.895Z,42.64
2022-11-21T23:22:25.200Z,42.83
2022-11-21T23:27:46.854Z,43.05
2022-11-21T23:33:08.683Z,43.11
2022-11-21T23:38:30.534Z,43.10
2022-11-21T23:43:52.229Z,43.07
2022-11-21T23:49:13.904Z,42.74
2022-11-21T23:54:35.573Z,43.18
2022-11-21T23:59:57.497Z,42.97
